Time;durP1;ratioP1;P1;durP2;ratioP2;P2;SDS_P1;SDS_P2;PMS_P1;PMS_P2;Temp;Humidity;BMP_temperature;BMP_pressure;BME280_temperature;BME280_humidity;BME280_pressure;Samples;Min_cycle;Max_cycle;Signal;HPM_P1;HPM_P2
2022/10/17 00:01:23;;;;;;;6.73;6.10;;;16.30;99.90;;;;;;5047672;28;20278;-57
2022/10/17 00:03:49;;;;;;;8.13;6.60;;;16.20;99.90;;;;;;5049964;28;20237;-58
2022/10/17 00:06:15;;;;;;;7.07;6.37;;;16.30;99.90;;;;;;5056210;28;20657;-58
2022/10/17 00:08:42;;;;;;;6.63;6.07;;;16.30;99.90;;;;;;5046558;28;20600;-59
2022/10/17 00:11:16;;;;;;;7.07;6.47;;;16.20;99.90;;;;;;5049869;28;21191;-58
2022/10/17 00:13:42;;;;;;;6.80;6.20;;;16.10;99.90;;;;;;5049093;28;20424;-57
2022/10/17 00:16:07;;;;;;;6.07;5.57;;;16.10;99.90;;;;;;5051020;28;20423;-58
2022/10/17 00:18:33;;;;;;;10.10;6.80;;;16.20;99.90;;;;;;5050553;28;20189;-59
2022/10/17 00:20:59;;;;;;;6.97;6.37;;;16.10;99.90;;;;;;5050254;28;20699;-59
2022/10/17 00:23:26;;;;;;;6.50;5.90;;;16.10;99.90;;;;;;5041963;28;20194;-59
2022/10/17 00:26:02;;;;;;;6.60;6.10;;;16.00;99.90;;;;;;5042220;28;20490;-58
2022/10/17 00:28:28;;;;;;;6.20;5.70;;;16.00;99.90;;;;;;5042886;28;20506;-57
2022/10/17 00:30:59;;;;;;;6.70;5.97;;;15.90;99.90;;;;;;5044929;28;20877;-57
2022/10/17 00:33:25;;;;;;;7.27;6.53;;;15.90;99.90;;;;;;5046106;28;20235;-59
2022/10/17 00:36:00;;;;;;;6.27;5.67;;;15.90;99.90;;;;;;5046203;28;22306;-58
2022/10/17 00:38:26;;;;;;;9.40;6.20;;;15.90;99.90;;;;;;5042717;28;20454;-59
2022/10/17 00:40:51;;;;;;;6.57;5.93;;;15.90;99.90;;;;;;5045348;28;20484;-57
2022/10/17 00:43:17;;;;;;;6.43;5.93;;;15.80;99.90;;;;;;5047813;28;20230;-57
2022/10/17 00:45:43;;;;;;;8.43;6.20;;;15.80;99.90;;;;;;5043942;28;20229;-57
2022/10/17 00:48:10;;;;;;;6.40;5.80;;;15.90;99.90;;;;;;5043218;28;20193;-59
2022/10/17 00:50:38;;;;;;;7.07;6.23;;;15.80;99.90;;;;;;5050000;28;20227;-57
2022/10/17 00:53:05;;;;;;;6.60;6.00;;;15.70;99.90;;;;;;5049577;28;20468;-57
2022/10/17 00:55:34;;;;;;;10.70;6.20;;;15.70;99.90;;;;;;5049346;28;20428;-59
2022/10/17 00:58:03;;;;;;;8.60;6.67;;;15.70;99.90;;;;;;5042046;28;21155;-59
2022/10/17 01:00:30;;;;;;;7.03;6.00;;;15.70;99.90;;;;;;5050320;28;20442;-58
2022/10/17 01:02:56;;;;;;;6.33;5.83;;;15.70;99.90;;;;;;5050925;28;20445;-59
2022/10/17 01:05:22;;;;;;;7.47;6.10;;;15.80;99.90;;;;;;5045448;28;20445;-58
2022/10/17 01:07:49;;;;;;;6.50;5.90;;;15.60;99.90;;;;;;5044019;28;20278;-58
2022/10/17 01:10:16;;;;;;;6.87;5.83;;;15.60;99.90;;;;;;5048020;28;20652;-58
2022/10/17 01:12:54;;;;;;;8.40;6.70;;;15.70;99.90;;;;;;5047090;28;20452;-58
2022/10/17 01:15:26;;;;;;;7.83;7.03;;;15.60;99.90;;;;;;5050113;28;21134;-58
2022/10/17 01:18:09;;;;;;;9.00;6.87;;;15.60;99.90;;;;;;5044568;28;20453;-58
2022/10/17 01:21:12;;;;;;;7.53;6.00;;;15.60;99.90;;;;;;5046054;28;20446;-57
2022/10/17 01:24:13;;;;;;;10.97;7.67;;;15.60;99.90;;;;;;5040714;28;20957;-59
2022/10/17 01:27:06;;;;;;;8.07;7.37;;;15.60;99.90;;;;;;5043988;28;20446;-58
2022/10/17 01:29:51;;;;;;;8.30;7.50;;;15.50;99.90;;;;;;5043302;28;20445;-59
2022/10/17 01:32:19;;;;;;;9.90;8.27;;;15.50;99.90;;;;;;5041481;28;20512;-58
2022/10/17 01:35:00;;;;;;;10.60;8.63;;;15.50;99.90;;;;;;5041419;28;20487;-59
2022/10/17 01:37:32;;;;;;;11.53;9.10;;;15.50;99.90;;;;;;5042176;28;21893;-58
2022/10/17 01:40:21;;;;;;;9.80;8.90;;;15.50;99.90;;;;;;5041306;28;20509;-59
2022/10/17 01:43:11;;;;;;;14.57;9.23;;;15.50;99.90;;;;;;5043943;28;20423;-58
2022/10/17 01:45:57;;;;;;;10.50;9.40;;;15.40;99.90;;;;;;5042584;28;20488;-57
2022/10/17 01:48:28;;;;;;;13.73;10.07;;;15.40;99.90;;;;;;5043721;28;20425;-58
2022/10/17 01:51:00;;;;;;;10.20;8.90;;;15.30;99.90;;;;;;5044680;28;20446;-59
2022/10/17 01:53:33;;;;;;;10.93;9.83;;;15.30;99.90;;;;;;5049253;28;20482;-59
2022/10/17 01:56:01;;;;;;;12.80;9.73;;;15.30;99.90;;;;;;5046054;28;20456;-59
2022/10/17 01:58:32;;;;;;;11.67;10.50;;;15.30;99.90;;;;;;5046811;28;20422;-57
2022/10/17 02:01:00;;;;;;;12.77;11.37;;;15.30;99.90;;;;;;5047163;28;20474;-59
2022/10/17 02:03:27;;;;;;;17.70;12.40;;;15.40;99.90;;;;;;5049102;28;20513;-59
2022/10/17 02:05:54;;;;;;;14.43;11.50;;;15.40;99.90;;;;;;5042680;28;20447;-59
2022/10/17 02:08:27;;;;;;;20.20;14.90;;;15.40;99.90;;;;;;5044711;28;20453;-59
2022/10/17 02:10:59;;;;;;;17.70;14.03;;;15.40;99.90;;;;;;5047431;28;20435;-58
2022/10/17 02:14:00;;;;;;;17.90;15.73;;;15.40;99.90;;;;;;5046076;28;20443;-58
2022/10/17 02:16:38;;;;;;;18.80;14.63;;;15.40;99.90;;;;;;5049232;28;20549;-58
2022/10/17 02:20:04;;;;;;;16.90;14.53;;;15.40;99.90;;;;;;5045264;28;21016;-58
2022/10/17 02:22:51;;;;;;;20.60;15.37;;;15.40;99.90;;;;;;4981625;28;21075;-58
2022/10/17 02:25:44;;;;;;;18.50;16.13;;;15.40;99.90;;;;;;5049631;28;20509;-59
2022/10/17 02:28:20;;;;;;;20.13;15.67;;;15.30;99.90;;;;;;5047129;28;20449;-58
2022/10/17 02:31:01;;;;;;;20.13;16.43;;;15.30;99.90;;;;;;5049325;28;20433;-58
2022/10/17 02:33:37;;;;;;;21.93;17.50;;;15.30;99.90;;;;;;5044618;28;20432;-57
2022/10/17 02:36:09;;;;;;;27.47;20.80;;;15.30;99.90;;;;;;5048829;28;20437;-57
2022/10/17 02:38:35;;;;;;;23.23;19.50;;;15.20;99.90;;;;;;5043494;28;20482;-58
2022/10/17 02:41:03;;;;;;;31.57;21.20;;;15.20;99.90;;;;;;5050624;28;20542;-58
2022/10/17 02:43:28;;;;;;;26.80;22.50;;;15.30;99.90;;;;;;5048585;28;20878;-58
2022/10/17 02:45:55;;;;;;;30.17;24.70;;;15.30;99.90;;;;;;5049551;28;20448;-58
2022/10/17 02:48:31;;;;;;;31.97;26.03;;;15.30;99.90;;;;;;5044138;28;20391;-58
2022/10/17 02:51:18;;;;;;;31.60;23.77;;;15.30;99.90;;;;;;5049181;28;20418;-59
2022/10/17 02:54:08;;;;;;;32.23;24.80;;;15.30;99.90;;;;;;5047421;28;20498;-58
2022/10/17 02:56:40;;;;;;;30.00;24.60;;;15.40;99.90;;;;;;5044728;28;20538;-58
2022/10/17 02:59:08;;;;;;;31.10;22.90;;;15.30;99.90;;;;;;5045489;28;20464;-59
2022/10/17 03:01:34;;;;;;;29.53;22.60;;;15.40;99.90;;;;;;5045103;28;20441;-59
2022/10/17 03:04:08;;;;;;;28.07;21.93;;;15.30;99.90;;;;;;5062063;28;20417;-57
2022/10/17 03:06:33;;;;;;;27.60;22.50;;;15.30;99.90;;;;;;5044536;28;20499;-58
2022/10/17 03:08:59;;;;;;;33.10;24.23;;;15.20;99.90;;;;;;5047466;28;20452;-59
2022/10/17 03:11:24;;;;;;;29.77;23.63;;;15.20;99.90;;;;;;5044680;28;20218;-58
2022/10/17 03:13:50;;;;;;;31.63;26.00;;;15.20;99.90;;;;;;5047292;28;20212;-60
2022/10/17 03:16:15;;;;;;;32.30;25.67;;;15.20;99.90;;;;;;5041690;28;20244;-60
2022/10/17 03:18:41;;;;;;;36.20;28.87;;;15.20;99.90;;;;;;5047618;28;20195;-58
2022/10/17 03:21:06;;;;;;;37.50;28.47;;;15.30;99.90;;;;;;5045790;28;20209;-58
2022/10/17 03:23:32;;;;;;;38.47;30.30;;;15.30;99.90;;;;;;5049602;28;20265;-58
2022/10/17 03:26:01;;;;;;;38.47;29.83;;;15.30;99.90;;;;;;5042290;28;20218;-59
2022/10/17 03:28:27;;;;;;;41.70;30.67;;;15.40;99.90;;;;;;5040391;28;20593;-58
2022/10/17 03:30:52;;;;;;;39.57;29.80;;;15.30;99.90;;;;;;5040482;28;20428;-57
2022/10/17 03:33:18;;;;;;;37.77;29.70;;;15.30;99.90;;;;;;5040525;28;20680;-58
2022/10/17 03:35:43;;;;;;;43.97;31.60;;;15.30;99.90;;;;;;5039597;28;20196;-59
2022/10/17 03:38:09;;;;;;;37.70;29.30;;;15.30;99.90;;;;;;5038037;28;20317;-57
2022/10/17 03:40:34;;;;;;;37.13;28.07;;;15.40;99.90;;;;;;5041931;28;20243;-58
2022/10/17 03:43:00;;;;;;;36.83;28.80;;;15.40;99.90;;;;;;5040458;28;20195;-58
2022/10/17 03:45:25;;;;;;;37.60;28.83;;;15.30;99.90;;;;;;5043803;28;20211;-58
2022/10/17 03:47:51;;;;;;;36.87;28.13;;;16.10;99.90;;;;;;5048304;28;20234;-58
2022/10/17 03:50:16;;;;;;;37.57;28.57;;;15.40;99.90;;;;;;5049294;28;20235;-58
2022/10/17 03:52:46;;;;;;;39.73;28.03;;;15.40;99.90;;;;;;5049870;28;20660;-57
2022/10/17 03:55:11;;;;;;;36.70;27.77;;;15.30;99.90;;;;;;5046460;28;20230;-58
2022/10/17 03:57:37;;;;;;;43.60;29.97;;;15.40;99.90;;;;;;5044702;28;20452;-59
2022/10/17 04:00:04;;;;;;;41.00;30.27;;;15.40;99.90;;;;;;5043222;28;20295;-58
2022/10/17 04:02:29;;;;;;;36.57;28.70;;;15.40;99.90;;;;;;5046345;28;20189;-57
2022/10/17 04:04:55;;;;;;;42.77;32.33;;;15.30;99.90;;;;;;5045462;28;20754;-59
2022/10/17 04:07:21;;;;;;;38.53;30.50;;;15.30;99.90;;;;;;5046093;28;20222;-58
2022/10/17 04:09:46;;;;;;;38.97;30.93;;;15.40;99.90;;;;;;5046428;28;20542;-58
2022/10/17 04:12:12;;;;;;;44.87;31.47;;;15.40;99.90;;;;;;5043600;28;20202;-58
2022/10/17 04:14:37;;;;;;;40.27;30.27;;;15.40;99.90;;;;;;5056509;28;20200;-59
2022/10/17 04:17:03;;;;;;;40.47;30.80;;;15.40;99.90;;;;;;5045689;28;20278;-57
2022/10/17 04:19:29;;;;;;;39.90;31.63;;;15.40;99.90;;;;;;5045941;28;20309;-59
2022/10/17 04:21:54;;;;;;;39.87;30.40;;;15.40;99.90;;;;;;5045645;28;20191;-59
2022/10/17 04:24:20;;;;;;;40.50;30.37;;;15.30;99.90;;;;;;5036596;28;20187;-59
2022/10/17 04:26:48;;;;;;;43.30;31.73;;;15.30;99.90;;;;;;5039209;28;20235;-57
2022/10/17 04:29:14;;;;;;;41.00;31.97;;;15.30;99.90;;;;;;5041384;28;20202;-59
2022/10/17 04:31:39;;;;;;;42.80;32.73;;;15.30;99.90;;;;;;5039187;28;20415;-57
2022/10/17 04:34:05;;;;;;;40.30;32.00;;;15.40;99.90;;;;;;5039957;28;20176;-59
2022/10/17 04:36:31;;;;;;;41.50;32.00;;;15.30;99.90;;;;;;5041021;28;20249;-59
2022/10/17 04:38:56;;;;;;;38.47;30.20;;;14.50;99.90;;;;;;5040044;28;20189;-58
2022/10/17 04:41:22;;;;;;;43.40;32.33;;;15.30;99.90;;;;;;5046491;28;20203;-58
2022/10/17 04:43:47;;;;;;;45.27;32.37;;;15.30;99.90;;;;;;5047498;28;20224;-58
2022/10/17 04:46:14;;;;;;;39.60;32.20;;;15.40;99.90;;;;;;5048079;28;20275;-59
2022/10/17 04:48:40;;;;;;;40.50;31.70;;;15.40;99.90;;;;;;5048033;28;20662;-59
2022/10/17 04:51:09;;;;;;;42.97;32.50;;;15.40;99.90;;;;;;5049312;28;21014;-59
2022/10/17 04:53:37;;;;;;;40.17;31.87;;;15.30;99.90;;;;;;5048863;28;20952;-59
2022/10/17 04:56:11;;;;;;;46.33;33.27;;;15.40;99.90;;;;;;5048113;28;20516;-58
2022/10/17 04:58:37;;;;;;;43.53;33.37;;;15.30;99.90;;;;;;5045171;28;20418;-58
2022/10/17 05:01:08;;;;;;;43.70;34.33;;;15.40;99.90;;;;;;5049012;28;20454;-59
2022/10/17 05:03:34;;;;;;;43.07;32.43;;;15.30;99.90;;;;;;5050761;28;20524;-58
2022/10/17 05:06:17;;;;;;;43.40;34.50;;;15.20;99.90;;;;;;5051755;28;20480;-59
2022/10/17 05:08:44;;;;;;;43.87;32.77;;;15.30;99.90;;;;;;5053151;28;20430;-59
2022/10/17 05:11:24;;;;;;;43.53;34.93;;;15.30;99.90;;;;;;5047291;28;20432;-59
2022/10/17 05:13:55;;;;;;;46.63;34.70;;;15.30;99.90;;;;;;5040434;28;20435;-59
2022/10/17 05:16:21;;;;;;;44.00;34.57;;;15.30;99.90;;;;;;5049250;28;20422;-58
2022/10/17 05:18:52;;;;;;;47.70;35.40;;;15.20;99.90;;;;;;5046478;28;20452;-59
2022/10/17 05:21:18;;;;;;;46.97;35.60;;;15.20;99.90;;;;;;5039778;28;20433;-58
2022/10/17 05:23:44;;;;;;;46.43;36.00;;;15.20;99.90;;;;;;5043171;28;20474;-58
2022/10/17 05:26:11;;;;;;;43.67;34.97;;;15.30;99.90;;;;;;5041548;28;20428;-59
2022/10/17 05:28:36;;;;;;;43.63;34.17;;;15.20;99.90;;;;;;5041433;28;20630;-59
2022/10/17 05:31:06;;;;;;;44.03;34.57;;;15.20;99.90;;;;;;5046726;28;20431;-59
2022/10/17 05:33:32;;;;;;;49.13;36.87;;;15.20;99.90;;;;;;5047290;28;20204;-59
2022/10/17 05:35:59;;;;;;;47.50;35.60;;;15.30;99.90;;;;;;5042079;28;20518;-58
2022/10/17 05:38:25;;;;;;;53.00;38.90;;;15.30;99.90;;;;;;5038913;28;20521;-58
2022/10/17 05:40:50;;;;;;;54.03;37.97;;;15.40;99.90;;;;;;5042585;28;20991;-57
2022/10/17 05:43:16;;;;;;;50.27;36.90;;;15.40;99.90;;;;;;5042143;28;20505;-59
2022/10/17 05:45:42;;;;;;;54.07;39.83;;;15.40;99.90;;;;;;5036923;28;20638;-58
2022/10/17 05:48:08;;;;;;;55.80;38.63;;;15.50;99.90;;;;;;5042246;28;20203;-57
2022/10/17 05:50:34;;;;;;;49.80;37.90;;;15.50;99.90;;;;;;5040563;28;20195;-58
2022/10/17 05:53:00;;;;;;;44.67;35.73;;;15.50;99.90;;;;;;5053750;28;20673;-58
2022/10/17 05:55:26;;;;;;;46.83;37.03;;;15.50;99.90;;;;;;5046181;28;20947;-59
2022/10/17 05:57:52;;;;;;;49.40;38.57;;;15.50;99.90;;;;;;5051945;28;20433;-58
2022/10/17 06:00:19;;;;;;;49.80;37.10;;;15.50;99.90;;;;;;5041443;28;20453;-58
2022/10/17 06:02:45;;;;;;;48.63;35.97;;;15.50;99.90;;;;;;5042824;28;20528;-57
2022/10/17 06:05:12;;;;;;;43.90;35.97;;;15.60;99.90;;;;;;5043048;28;20533;-59
2022/10/17 06:07:38;;;;;;;49.60;36.33;;;15.60;99.90;;;;;;5048266;28;20442;-59
2022/10/17 06:10:04;;;;;;;45.57;35.83;;;15.70;99.90;;;;;;5045475;28;20425;-58
2022/10/17 06:12:30;;;;;;;43.50;34.60;;;15.80;99.90;;;;;;5039126;28;20189;-59
2022/10/17 06:14:56;;;;;;;46.73;35.90;;;15.90;99.90;;;;;;5049927;28;20440;-58
2022/10/17 06:17:21;;;;;;;45.63;36.53;;;15.90;99.90;;;;;;5061996;28;20243;-57
2022/10/17 06:19:47;;;;;;;43.73;33.57;;;15.90;99.90;;;;;;5050961;28;20899;-58
2022/10/17 06:22:12;;;;;;;45.93;35.67;;;15.90;99.90;;;;;;5054663;28;20198;-57
2022/10/17 06:24:38;;;;;;;44.90;35.50;;;16.00;99.90;;;;;;5044774;28;20204;-58
2022/10/17 06:27:04;;;;;;;42.43;34.30;;;16.00;99.90;;;;;;5044237;28;20317;-65
2022/10/17 06:29:29;;;;;;;49.63;38.03;;;16.10;99.90;;;;;;5044562;28;20341;-59
2022/10/17 06:31:55;;;;;;;47.13;36.27;;;16.20;92.90;;;;;;5053063;28;20221;-60
2022/10/17 06:34:20;;;;;;;39.90;33.87;;;16.20;93.10;;;;;;5050125;28;20199;-59
2022/10/17 06:36:46;;;;;;;43.90;33.93;;;16.20;80.60;;;;;;5045022;28;20183;-60
2022/10/17 06:39:12;;;;;;;43.10;34.40;;;16.20;68.90;;;;;;5046833;28;20218;-59
2022/10/17 06:41:40;;;;;;;41.40;33.80;;;16.30;62.00;;;;;;5050175;28;20437;-60
2022/10/17 06:44:09;;;;;;;39.53;31.50;;;16.30;60.00;;;;;;5048516;28;20574;-59
2022/10/17 06:46:36;;;;;;;39.20;32.17;;;16.40;59.20;;;;;;5049533;28;20554;-60
2022/10/17 06:49:03;;;;;;;39.00;32.07;;;16.60;54.60;;;;;;5051263;28;20713;-59
2022/10/17 06:51:29;;;;;;;37.40;30.87;;;16.50;22.80;;;;;;5057717;28;20417;-60
2022/10/17 06:53:56;;;;;;;43.50;33.73;;;16.70;16.50;;;;;;5060587;28;20425;-58
2022/10/17 06:56:22;;;;;;;36.60;32.10;;;16.70;1.00;;;;;;5054802;28;20492;-59
2022/10/17 06:58:49;;;;;;;44.50;31.17;;;16.70;1.00;;;;;;5055638;28;20440;-59
2022/10/17 07:01:15;;;;;;;39.50;31.87;;;16.80;1.00;;;;;;5059645;28;20217;-60
2022/10/17 07:03:42;;;;;;;38.83;30.47;;;16.80;1.00;;;;;;5052360;28;20432;-59
2022/10/17 07:06:10;;;;;;;38.40;30.53;;;16.90;1.00;;;;;;5061995;28;20504;-59
2022/10/17 07:08:36;;;;;;;36.17;30.57;;;16.90;1.00;;;;;;5059452;28;20520;-59
2022/10/17 07:11:12;;;;;;;39.37;29.60;;;17.00;1.00;;;;;;5052260;28;21064;-58
2022/10/17 07:13:37;;;;;;;34.83;31.03;;;17.20;1.00;;;;;;5051609;28;20982;-59
2022/10/17 07:16:03;;;;;;;39.70;30.63;;;17.30;1.00;;;;;;5055249;28;20434;-60
2022/10/17 07:18:29;;;;;;;39.07;30.60;;;17.30;1.00;;;;;;5050659;28;20190;-59
2022/10/17 07:20:54;;;;;;;35.87;30.37;;;17.30;1.00;;;;;;5060864;28;20254;-60
2022/10/17 07:23:21;;;;;;;36.03;30.77;;;17.40;1.00;;;;;;5054594;28;20185;-60
2022/10/17 07:25:46;;;;;;;34.53;30.67;;;17.40;1.00;;;;;;5056704;28;20186;-60
2022/10/17 07:28:14;;;;;;;38.47;31.07;;;17.40;1.00;;;;;;5059196;28;20773;-59
2022/10/17 07:30:40;;;;;;;35.27;30.57;;;17.60;1.00;;;;;;5059329;28;20185;-60
2022/10/17 07:33:05;;;;;;;34.67;29.27;;;17.70;1.00;;;;;;5060753;28;20430;-59
2022/10/17 07:35:31;;;;;;;36.30;29.40;;;17.70;1.00;;;;;;5062387;28;20198;-58
2022/10/17 07:37:56;;;;;;;32.97;28.10;;;17.70;1.00;;;;;;5061566;28;20217;-58
2022/10/17 07:40:22;;;;;;;35.07;30.00;;;17.80;1.00;;;;;;5060517;28;20232;-59
2022/10/17 07:42:48;;;;;;;32.87;29.30;;;17.80;1.00;;;;;;5060499;28;20649;-60
2022/10/17 07:45:14;;;;;;;32.50;28.53;;;18.00;1.00;;;;;;5060056;28;20218;-59
2022/10/17 07:47:40;;;;;;;33.73;28.43;;;18.20;1.00;;;;;;5054891;28;20185;-60
2022/10/17 07:50:06;;;;;;;32.67;29.00;;;18.20;1.00;;;;;;5061709;28;20470;-59
2022/10/17 07:52:32;;;;;;;37.73;28.33;;;18.30;1.00;;;;;;5055928;28;20842;-59
2022/10/17 07:54:57;;;;;;;32.37;28.53;;;18.30;1.00;;;;;;5052816;28;20435;-59
2022/10/17 07:57:23;;;;;;;35.80;28.10;;;18.40;1.00;;;;;;5057829;28;20248;-58
2022/10/17 07:59:50;;;;;;;35.90;30.13;;;18.50;1.00;;;;;;5054546;28;20221;-59
2022/10/17 08:02:24;;;;;;;35.20;28.50;;;18.60;1.00;;;;;;5063403;28;20253;-60
2022/10/17 08:04:50;;;;;;;30.43;27.07;;;18.60;1.00;;;;;;5045487;28;20427;-61
2022/10/17 08:07:16;;;;;;;32.40;27.17;;;18.80;1.00;;;;;;5053282;28;20440;-62
2022/10/17 08:09:43;;;;;;;30.57;26.97;;;19.10;1.00;;;;;;5045097;28;20436;-59
2022/10/17 08:12:10;;;;;;;29.27;26.27;;;19.10;1.00;;;;;;5056608;28;20802;-60
2022/10/17 08:14:35;;;;;;;30.00;26.07;;;19.10;1.00;;;;;;5051060;28;20451;-60
2022/10/17 08:17:01;;;;;;;28.73;25.73;;;19.40;1.00;;;;;;5053751;28;20455;-60
2022/10/17 08:19:27;;;;;;;30.00;26.80;;;19.40;1.00;;;;;;5064868;28;20472;-59
2022/10/17 08:21:53;;;;;;;31.17;27.20;;;19.40;1.00;;;;;;5065752;28;20655;-59
2022/10/17 08:24:19;;;;;;;29.40;26.20;;;19.50;1.00;;;;;;5056454;28;20505;-59
2022/10/17 08:26:44;;;;;;;27.63;24.73;;;19.50;1.00;;;;;;5065410;28;20893;-60
2022/10/17 08:29:15;;;;;;;32.30;26.60;;;19.70;1.00;;;;;;5062140;28;20442;-59
2022/10/17 08:31:41;;;;;;;33.33;27.43;;;19.80;1.00;;;;;;5061452;28;20210;-59
2022/10/17 08:34:07;;;;;;;29.80;25.73;;;20.00;1.00;;;;;;5062382;28;20909;-60
2022/10/17 08:36:33;;;;;;;30.23;26.93;;;20.00;1.00;;;;;;5063426;28;20425;-60
2022/10/17 08:38:58;;;;;;;30.80;27.50;;;20.20;1.00;;;;;;5063752;28;20527;-60
2022/10/17 08:41:46;;;;;;;26.23;23.13;;;20.20;1.00;;;;;;5061280;28;20185;-59
2022/10/17 08:44:32;;;;;;;26.97;24.17;;;20.20;1.00;;;;;;5057244;28;20700;-60
2022/10/17 08:47:00;;;;;;;28.60;25.57;;;20.30;1.00;;;;;;5049493;28;20422;-65
2022/10/17 08:49:51;;;;;;;29.67;26.47;;;20.30;1.00;;;;;;5055968;28;20778;-65
2022/10/17 08:52:38;;;;;;;28.60;25.50;;;20.10;1.00;;;;;;5045173;28;20467;-64
2022/10/17 08:55:16;;;;;;;27.90;24.90;;;20.10;1.00;;;;;;5051475;28;20448;-64
2022/10/17 08:57:42;;;;;;;29.43;25.80;;;20.10;1.00;;;;;;5057216;28;20427;-62
2022/10/17 09:00:19;;;;;;;29.03;25.87;;;20.20;1.00;;;;;;5052051;28;20838;-63
2022/10/17 09:03:03;;;;;;;28.70;25.60;;;20.30;1.00;;;;;;5051164;28;20446;-62
2022/10/17 09:05:52;;;;;;;27.10;24.30;;;20.40;1.00;;;;;;5048996;28;20461;-62
2022/10/17 09:08:24;;;;;;;27.33;24.50;;;20.60;1.00;;;;;;5049409;28;20418;-62
2022/10/17 09:10:54;;;;;;;28.20;25.20;;;20.70;1.00;;;;;;5052543;28;20453;-63
2022/10/17 09:13:39;;;;;;;27.90;24.90;;;20.70;1.00;;;;;;5048703;28;20414;-63
2022/10/17 09:16:37;;;;;;;29.53;26.20;;;20.80;1.00;;;;;;5048903;28;20411;-63
2022/10/17 09:19:21;;;;;;;27.00;24.20;;;21.00;1.00;;;;;;5036488;28;20457;-60
2022/10/17 09:21:58;;;;;;;28.10;25.30;;;20.90;1.00;;;;;;5043793;28;20537;-61
2022/10/17 09:24:43;;;;;;;28.00;25.00;;;21.00;1.00;;;;;;5048825;28;20497;-60
2022/10/17 09:27:40;;;;;;;29.30;24.77;;;21.00;1.00;;;;;;5047810;28;20449;-61
2022/10/17 09:30:24;;;;;;;28.40;24.83;;;21.00;1.00;;;;;;5037693;28;20542;-61
2022/10/17 09:32:50;;;;;;;28.20;25.20;;;21.00;1.00;;;;;;5047392;28;20452;-59
2022/10/17 09:35:16;;;;;;;29.07;26.13;;;21.10;1.00;;;;;;5047836;28;20974;-61
2022/10/17 09:37:43;;;;;;;30.13;26.10;;;21.00;1.00;;;;;;5050376;28;20473;-60
2022/10/17 09:40:27;;;;;;;29.37;25.60;;;20.90;1.00;;;;;;5051469;28;20461;-59
2022/10/17 09:42:53;;;;;;;30.03;24.90;;;20.90;1.00;;;;;;5059662;28;20453;-61
2022/10/17 09:45:24;;;;;;;26.50;23.70;;;21.00;1.00;;;;;;5039380;28;20971;-60
2022/10/17 09:48:10;;;;;;;26.90;24.10;;;21.10;1.00;;;;;;5047169;28;20203;-60
2022/10/17 09:50:36;;;;;;;28.20;24.40;;;21.30;1.00;;;;;;5049578;28;20430;-60
2022/10/17 09:53:26;;;;;;;27.83;24.43;;;21.40;1.00;;;;;;5050530;28;20446;-59
2022/10/17 09:55:57;;;;;;;29.73;25.07;;;21.30;1.00;;;;;;5057971;28;20434;-60
2022/10/17 09:58:38;;;;;;;26.37;23.67;;;21.40;1.00;;;;;;5046721;28;20433;-60
2022/10/17 10:01:15;;;;;;;25.47;23.10;;;21.60;1.00;;;;;;5049045;28;20478;-60
2022/10/17 10:03:40;;;;;;;25.50;22.60;;;21.70;1.00;;;;;;5050621;28;20536;-61
2022/10/17 10:06:17;;;;;;;28.23;23.80;;;21.70;1.00;;;;;;5053171;28;20522;-59
2022/10/17 10:08:57;;;;;;;29.73;24.93;;;21.70;1.00;;;;;;5057615;28;20186;-60
2022/10/17 10:11:44;;;;;;;25.23;22.50;;;21.60;1.00;;;;;;5060497;28;20458;-59
2022/10/17 10:14:32;;;;;;;26.83;23.83;;;21.70;1.00;;;;;;5047690;28;20427;-59
2022/10/17 10:16:59;;;;;;;25.33;22.73;;;21.60;1.00;;;;;;5050367;28;20469;-60
2022/10/17 10:19:32;;;;;;;26.80;24.20;;;21.70;1.00;;;;;;5047952;28;20466;-59
2022/10/17 10:22:01;;;;;;;26.67;23.97;;;21.80;1.00;;;;;;5050138;28;20509;-59
2022/10/17 10:24:28;;;;;;;26.00;23.40;;;21.80;1.00;;;;;;5048240;28;20446;-60
2022/10/17 10:26:57;;;;;;;25.67;22.93;;;21.90;1.00;;;;;;5049147;28;20446;-59
2022/10/17 10:29:37;;;;;;;25.97;21.50;;;22.00;1.00;;;;;;5046378;28;20911;-60
2022/10/17 10:32:24;;;;;;;23.53;21.20;;;22.10;1.00;;;;;;5049845;28;20921;-60
2022/10/17 10:34:59;;;;;;;26.47;22.97;;;22.20;1.00;;;;;;5048054;28;20501;-59
2022/10/17 10:37:33;;;;;;;26.27;23.37;;;22.40;1.00;;;;;;5048635;28;20467;-60
2022/10/17 10:40:03;;;;;;;25.47;22.80;;;22.40;1.00;;;;;;5047704;28;20891;-60
2022/10/17 10:42:37;;;;;;;24.00;21.43;;;22.50;1.00;;;;;;5045237;28;20459;-60
2022/10/17 10:45:25;;;;;;;24.37;21.73;;;22.50;1.00;;;;;;5047494;28;20527;-60
2022/10/17 10:47:55;;;;;;;23.73;21.33;;;22.50;1.00;;;;;;5050523;28;20442;-59
2022/10/17 10:50:40;;;;;;;24.70;21.67;;;22.60;1.00;;;;;;5042889;28;20543;-60
2022/10/17 10:53:48;;;;;;;25.47;20.63;;;22.80;1.00;;;;;;5045317;28;20461;-59
2022/10/17 10:56:29;;;;;;;22.67;20.40;;;22.70;1.00;;;;;;5038206;28;20453;-61
2022/10/17 10:59:02;;;;;;;24.03;21.27;;;22.80;1.00;;;;;;5051450;28;20450;-60
2022/10/17 11:01:30;;;;;;;23.10;20.87;;;22.90;1.00;;;;;;5055051;28;20456;-61
2022/10/17 11:04:20;;;;;;;22.90;20.70;;;22.80;1.00;;;;;;5046655;28;20478;-61
2022/10/17 11:06:48;;;;;;;24.33;20.20;;;22.80;1.00;;;;;;5044268;28;20510;-60
2022/10/17 11:09:43;;;;;;;21.47;19.23;;;22.90;1.00;;;;;;5046678;28;20450;-61
2022/10/17 11:12:23;;;;;;;23.00;20.77;;;23.00;1.00;;;;;;5047953;28;20478;-61
2022/10/17 11:15:13;;;;;;;21.93;19.27;;;23.00;1.00;;;;;;5049044;28;20459;-61
2022/10/17 11:17:44;;;;;;;20.10;18.20;;;23.00;1.00;;;;;;5045557;28;20416;-59
2022/10/17 11:20:57;;;;;;;23.07;20.60;;;23.10;1.00;;;;;;5047676;28;20471;-61
2022/10/17 11:23:45;;;;;;;23.10;20.80;;;23.00;1.00;;;;;;5055700;28;20912;-61
2022/10/17 11:26:32;;;;;;;22.80;19.10;;;23.00;1.00;;;;;;5063944;28;20432;-60
2022/10/17 11:29:02;;;;;;;20.00;17.90;;;23.00;1.00;;;;;;5047161;28;20418;-60
2022/10/17 11:31:36;;;;;;;21.63;19.33;;;23.10;1.00;;;;;;5049791;28;20452;-59
2022/10/17 11:34:24;;;;;;;23.57;21.20;;;23.30;1.00;;;;;;5049453;28;20451;-60
2022/10/17 11:36:55;;;;;;;22.93;20.83;;;23.40;1.00;;;;;;5051961;28;20520;-60
2022/10/17 11:39:47;;;;;;;20.80;18.80;;;23.40;1.00;;;;;;5049461;28;20465;-61
2022/10/17 11:42:18;;;;;;;23.27;21.07;;;23.50;1.00;;;;;;5047826;28;20417;-62
2022/10/17 11:44:44;;;;;;;20.57;18.47;;;23.70;1.00;;;;;;5062495;28;20452;-61
2022/10/17 11:47:26;;;;;;;21.00;19.00;;;23.60;1.00;;;;;;5069612;28;20921;-61
2022/10/17 11:50:01;;;;;;;25.53;20.33;;;23.70;1.00;;;;;;5069281;28;20310;-61
2022/10/17 11:52:37;;;;;;;20.67;18.57;;;23.60;1.00;;;;;;5069629;28;20824;-61
2022/10/17 11:55:18;;;;;;;21.87;19.63;;;23.80;1.00;;;;;;5052909;28;20498;-61
2022/10/17 11:58:17;;;;;;;20.73;18.60;;;23.90;1.00;;;;;;5048427;28;20445;-60
2022/10/17 12:00:49;;;;;;;21.97;18.90;;;24.00;1.00;;;;;;5047294;28;20469;-60
2022/10/17 12:03:30;;;;;;;20.00;17.80;;;24.00;1.00;;;;;;5048829;28;20454;-60
2022/10/17 12:06:18;;;;;;;19.47;17.10;;;24.00;1.00;;;;;;5049239;28;20531;-60
2022/10/17 12:08:50;;;;;;;19.67;17.70;;;24.10;1.00;;;;;;5045837;28;20446;-61
2022/10/17 12:11:24;;;;;;;20.63;18.43;;;24.20;1.00;;;;;;5050801;28;20979;-61
2022/10/17 12:13:53;;;;;;;19.07;17.07;;;24.40;1.00;;;;;;5048997;28;20438;-60
2022/10/17 12:16:18;;;;;;;19.33;17.57;;;24.40;1.00;;;;;;5048121;28;20540;-59
2022/10/17 12:18:47;;;;;;;18.43;16.53;;;24.60;1.00;;;;;;5057093;28;20861;-59
2022/10/17 12:21:13;;;;;;;18.60;16.80;;;24.80;1.00;;;;;;5048903;28;20603;-60
2022/10/17 12:23:40;;;;;;;18.90;16.90;;;24.90;1.00;;;;;;5047532;28;20453;-61
2022/10/17 12:26:08;;;;;;;19.53;17.70;;;25.00;1.00;;;;;;5047938;28;20208;-60
2022/10/17 12:28:36;;;;;;;20.80;17.83;;;25.10;1.00;;;;;;5048416;28;20461;-61
2022/10/17 12:31:08;;;;;;;19.17;17.27;;;25.10;1.00;;;;;;5048764;28;20544;-60
2022/10/17 12:33:47;;;;;;;18.50;16.70;;;25.20;1.00;;;;;;5048339;28;20464;-61
2022/10/17 12:36:21;;;;;;;18.93;17.10;;;25.30;1.00;;;;;;5044601;28;21013;-61
2022/10/17 12:39:00;;;;;;;20.43;18.43;;;25.20;1.00;;;;;;5048667;28;20444;-62
2022/10/17 12:41:37;;;;;;;18.60;16.80;;;25.20;1.00;;;;;;5048399;28;20532;-61
2022/10/17 12:44:12;;;;;;;19.33;17.63;;;25.20;1.00;;;;;;5052531;28;20822;-61
2022/10/17 12:46:50;;;;;;;18.57;16.70;;;25.30;1.00;;;;;;5049740;28;20432;-61
2022/10/17 12:49:23;;;;;;;20.97;18.03;;;25.20;1.00;;;;;;5045873;28;20786;-60
2022/10/17 12:52:28;;;;;;;19.83;17.93;;;25.20;1.00;;;;;;5056668;28;20437;-60
2022/10/17 12:55:05;;;;;;;18.17;16.47;;;25.00;1.00;;;;;;5045426;28;20513;-60
2022/10/17 12:57:36;;;;;;;19.40;17.33;;;25.10;1.00;;;;;;5048864;28;20431;-60